Time;durP1;ratioP1;P1;durP2;ratioP2;P2;SDS_P1;SDS_P2;PMS_P1;PMS_P2;Temp;Humidity;BMP_temperature;BMP_pressure;BME280_temperature;BME280_humidity;BME280_pressure;Samples;Min_cycle;Max_cycle;Signal;HPM_P1;HPM_P2
2022/06/24 00:00:37;;;;;;;0.40;0.20;;;16.40;1.40;;;17.29;100.00;94943.20;645870;216;32086;-75
2022/06/24 00:03:19;;;;;;;0.40;0.22;;;16.40;1.40;;;17.30;100.00;94935.89;647464;216;31472;-75
2022/06/24 00:06:00;;;;;;;0.60;0.30;;;16.40;1.40;;;17.34;100.00;94931.97;646184;216;31473;-75
2022/06/24 00:08:48;;;;;;;0.40;0.20;;;16.40;1.40;;;17.34;100.00;94931.56;647391;216;31499;-75
2022/06/24 00:11:30;;;;;;;0.80;0.20;;;16.40;1.40;;;17.30;100.00;94940.41;646921;216;31746;-75
2022/06/24 00:14:13;;;;;;;0.40;0.30;;;16.40;1.40;;;17.29;100.00;94949.14;646489;216;31537;-75
2022/06/24 00:17:05;;;;;;;4.93;0.57;;;16.40;1.40;;;17.28;100.00;94948.85;646858;215;31561;-75
2022/06/24 00:19:55;;;;;;;0.40;0.20;;;16.30;1.40;;;17.28;100.00;94947.37;646225;216;31499;-75
2022/06/24 00:22:43;;;;;;;0.50;0.30;;;16.30;1.40;;;17.20;100.00;94951.21;619862;225;31789;-74
2022/06/24 00:25:24;;;;;;;0.50;0.40;;;16.10;1.40;;;17.17;100.00;94953.69;647765;216;31566;-75
2022/06/24 00:28:09;;;;;;;0.40;0.20;;;16.10;1.40;;;17.13;100.00;94958.54;647573;216;31568;-74
2022/06/24 00:30:52;;;;;;;0.60;0.40;;;16.10;1.40;;;17.10;100.00;94954.77;645428;212;31525;-74
2022/06/24 00:35:52;;;;;;;0.60;0.40;;;16.10;1.40;;;17.03;100.00;94953.47;646920;216;42677;-75
2022/06/24 00:38:37;;;;;;;0.52;0.40;;;16.10;1.40;;;17.01;100.00;94943.28;646799;216;32013;-75
2022/06/24 00:41:18;;;;;;;1.00;0.60;;;16.10;1.40;;;17.00;100.00;94945.22;648044;212;31475;-76
2022/06/24 00:44:00;;;;;;;0.43;0.20;;;16.10;1.40;;;16.96;100.00;94946.91;646355;216;31672;-75
2022/06/24 00:46:41;;;;;;;0.50;0.40;;;16.00;1.40;;;16.97;100.00;94946.13;646311;216;32060;-75
2022/06/24 00:49:25;;;;;;;1.20;0.40;;;16.00;1.40;;;16.94;100.00;94950.85;647691;216;32007;-75
2022/06/24 00:52:11;;;;;;;0.40;0.20;;;16.00;1.40;;;16.93;100.00;94938.57;644173;212;31684;-75
2022/06/24 00:54:52;;;;;;;0.50;0.30;;;16.00;1.40;;;16.97;100.00;94940.83;646930;216;31475;-75
2022/06/24 00:57:35;;;;;;;0.40;0.20;;;16.00;1.40;;;16.97;100.00;94941.16;619626;226;31869;-75
2022/06/24 01:02:50;;;;;;;0.40;0.20;;;16.00;1.40;;;16.96;100.00;94934.17;644768;212;31476;-75
2022/06/24 01:05:32;;;;;;;0.50;0.30;;;16.00;1.40;;;16.95;100.00;94927.68;646707;216;31496;-75
2022/06/24 01:08:14;;;;;;;0.40;0.30;;;16.00;1.40;;;16.98;100.00;94931.78;618522;226;32034;-76
2022/06/24 01:10:55;;;;;;;0.40;0.30;;;16.00;1.40;;;16.99;100.00;94931.54;646875;216;31477;-75
2022/06/24 01:13:37;;;;;;;1.00;0.40;;;16.00;1.40;;;17.00;100.00;94926.23;618143;226;32355;-75
2022/06/24 01:16:22;;;;;;;0.40;0.20;;;16.00;1.40;;;17.00;100.00;94927.39;647293;216;33150;-75
2022/06/24 01:19:06;;;;;;;0.40;0.40;;;16.00;1.40;;;16.99;100.00;94931.13;618852;226;32449;-76
2022/06/24 01:21:47;;;;;;;0.77;0.50;;;16.00;1.40;;;17.01;100.00;94931.58;646848;216;32805;-75
2022/06/24 01:24:29;;;;;;;0.70;0.40;;;16.00;1.40;;;17.00;100.00;94924.72;646890;212;31572;-75
2022/06/24 01:27:11;;;;;;;0.40;0.20;;;16.00;1.40;;;17.03;100.00;94934.33;647584;216;31771;-74
2022/06/24 01:29:52;;;;;;;1.00;1.00;;;16.00;1.40;;;17.03;100.00;94931.45;647524;216;31483;-75
2022/06/24 01:32:34;;;;;;;0.60;0.20;;;16.00;1.40;;;17.04;100.00;94936.99;644976;216;31468;-75
2022/06/24 01:35:51;;;;;;;0.40;0.20;;;16.10;1.40;;;17.06;100.00;94937.28;646727;216;42113;-74
2022/06/24 01:38:33;;;;;;;0.82;0.30;;;16.00;1.40;;;17.05;100.00;94932.80;646743;212;31475;-75
2022/06/24 01:41:14;;;;;;;0.73;0.30;;;16.00;1.40;;;17.07;100.00;94935.43;647551;216;31507;-75
2022/06/24 01:43:56;;;;;;;1.70;0.50;;;16.00;1.40;;;17.13;100.00;94942.84;645826;216;31517;-75
2022/06/24 01:46:38;;;;;;;0.40;0.30;;;16.00;1.40;;;17.19;100.00;94939.50;646548;216;31483;-75
2022/06/24 01:49:19;;;;;;;0.70;0.60;;;16.00;1.40;;;17.16;100.00;94940.25;646846;213;31997;-75
2022/06/24 01:52:01;;;;;;;0.55;0.30;;;16.00;1.40;;;17.14;100.00;94934.66;646557;212;32956;-75
2022/06/24 01:54:43;;;;;;;0.40;0.20;;;16.00;1.40;;;17.17;100.00;94942.02;646633;216;32030;-75
2022/06/24 01:57:25;;;;;;;0.40;0.30;;;16.00;1.40;;;17.20;100.00;94939.54;648293;216;31568;-75
2022/06/24 02:00:10;;;;;;;0.40;0.30;;;16.10;1.40;;;17.23;100.00;94939.13;647230;216;31480;-75
2022/06/24 02:02:51;;;;;;;0.60;0.50;;;16.00;1.40;;;17.33;100.00;94939.86;646677;216;31717;-75
2022/06/24 02:05:33;;;;;;;0.40;0.30;;;16.10;1.40;;;17.45;100.00;94940.03;646844;212;31600;-75
2022/06/24 02:08:15;;;;;;;0.40;0.30;;;16.10;1.40;;;17.45;100.00;94943.03;646343;216;31718;-75
2022/06/24 02:13:44;;;;;;;0.40;0.20;;;16.20;1.40;;;17.38;100.00;94944.05;647124;216;31515;-75
2022/06/24 02:16:26;;;;;;;0.50;0.40;;;16.10;1.40;;;17.41;100.00;94946.01;646705;216;31470;-75
2022/06/24 02:19:07;;;;;;;0.40;0.30;;;16.10;1.40;;;17.43;100.00;94942.09;645124;212;31640;-75
2022/06/24 02:21:52;;;;;;;0.70;0.60;;;16.20;1.40;;;17.45;100.00;94947.11;646015;212;31822;-75
2022/06/24 02:24:34;;;;;;;0.50;0.30;;;16.10;1.40;;;17.43;100.00;94939.59;619116;226;31872;-75
2022/06/24 02:27:15;;;;;;;0.70;0.30;;;16.00;1.40;;;17.41;100.00;94938.41;647529;216;31496;-74
2022/06/24 02:29:57;;;;;;;0.40;0.20;;;16.00;1.40;;;17.38;100.00;94935.73;646507;216;31792;-75
2022/06/24 02:32:39;;;;;;;1.80;0.70;;;16.00;1.40;;;17.37;100.00;94933.52;646603;212;31511;-75
2022/06/24 02:35:51;;;;;;;;;;;16.00;1.40;;;17.27;100.00;94929.53;651794;216;24929;-75
2022/06/24 02:38:33;;;;;;;;;;;15.90;1.40;;;17.23;100.00;94928.27;654229;216;25231;-75
2022/06/24 02:41:13;;;;;;;;;;;15.90;1.40;;;17.17;100.00;94928.12;652275;216;25312;-75
2022/06/24 02:43:58;;;;;;;;;;;15.80;1.40;;;17.10;100.00;94930.98;649084;217;24795;-75
2022/06/24 02:46:39;;;;;;;;;;;15.80;1.40;;;17.08;100.00;94932.18;653517;216;24810;-75
2022/06/24 02:49:20;;;;;;;;;;;15.80;1.40;;;17.12;100.00;94928.05;652860;216;24823;-75
2022/06/24 02:52:02;;;;;;;;;;;15.70;1.40;;;17.09;100.00;94925.31;652334;212;25004;-76
2022/06/24 02:54:43;;;;;;;;;;;15.70;1.40;;;17.04;100.00;94922.61;649120;215;24880;-76
2022/06/24 02:57:24;;;;;;;;;;;15.60;1.40;;;17.09;100.00;94919.16;652343;212;24854;-76
2022/06/24 03:00:07;;;;;;;;;;;15.70;1.40;;;17.20;100.00;94918.33;653481;216;24831;-76
2022/06/24 03:02:48;;;;;;;;;;;15.80;1.40;;;17.25;100.00;94917.45;653263;212;24831;-77
2022/06/24 03:05:29;;;;;;;;;;;15.80;1.40;;;17.26;100.00;94916.87;652368;216;24803;-76
2022/06/24 03:08:11;;;;;;;;;;;15.80;1.40;;;17.22;100.00;94916.03;653416;212;25329;-75
2022/06/24 03:10:52;;;;;;;;;;;15.70;1.40;;;17.18;100.00;94921.62;653799;216;24815;-75
2022/06/24 03:13:33;;;;;;;;;;;15.70;1.40;;;17.05;100.00;94921.91;653293;216;24822;-75
2022/06/24 03:16:14;;;;;;;;;;;15.70;1.40;;;17.09;100.00;94920.80;653970;216;24893;-75
2022/06/24 03:18:56;;;;;;;;;;;15.70;1.40;;;16.91;100.00;94924.41;653304;216;25315;-75
2022/06/24 03:21:37;;;;;;;;;;;15.50;1.40;;;16.90;100.00;94925.56;649346;216;24848;-75
2022/06/24 03:24:19;;;;;;;;;;;15.60;1.40;;;16.89;100.00;94919.61;652315;216;24831;-76
2022/06/24 03:27:00;;;;;;;;;;;15.50;1.40;;;16.89;100.00;94919.44;652827;216;24837;-75
2022/06/24 03:29:41;;;;;;;;;;;15.60;1.40;;;17.02;100.00;94916.21;654353;216;25410;-75
2022/06/24 03:32:22;;;;;;;;;;;15.70;1.40;;;17.10;100.00;94916.39;652485;212;24812;-75
2022/06/24 03:35:50;;;;;;;;;;;15.70;1.40;;;17.13;100.00;94913.62;651983;216;24833;-75
2022/06/24 03:38:32;;;;;;;;;;;15.80;1.40;;;17.12;100.00;94912.27;653957;212;24922;-75
2022/06/24 03:41:13;;;;;;;;;;;15.80;1.40;;;17.13;100.00;94905.57;655047;216;25295;-75
2022/06/24 03:43:54;;;;;;;;;;;15.80;1.40;;;17.21;100.00;94904.52;648809;216;24813;-75
2022/06/24 03:46:36;;;;;;;;;;;15.90;1.40;;;17.21;100.00;94905.14;653860;216;24826;-75
2022/06/24 03:49:19;;;;;;;;;;;15.80;1.40;;;17.24;100.00;94901.72;653439;212;25630;-75
2022/06/24 03:52:01;;;;;;;;;;;15.90;1.40;;;17.22;100.00;94902.13;650439;212;24824;-75
2022/06/24 03:54:43;;;;;;;;;;;15.80;1.40;;;17.23;100.00;94895.97;653578;212;24826;-75
2022/06/24 03:57:27;;;;;;;;;;;15.80;1.40;;;17.33;100.00;94898.27;655060;216;24805;-75
2022/06/24 04:00:10;;;;;;;;;;;15.90;1.40;;;17.36;100.00;94902.95;654332;212;24841;-75
2022/06/24 04:02:52;;;;;;;;;;;15.90;1.40;;;17.29;100.00;94901.77;653477;212;24822;-75
2022/06/24 04:05:33;;;;;;;;;;;15.90;1.40;;;17.35;100.00;94900.52;652513;216;24838;-75
2022/06/24 04:08:14;;;;;;;;;;;16.00;1.40;;;17.44;100.00;94901.77;652596;212;25134;-75
2022/06/24 04:10:56;;;;;;;;;;;16.10;1.40;;;17.55;100.00;94903.39;653889;216;24866;-75
2022/06/24 04:13:37;;;;;;;;;;;16.20;1.40;;;17.59;100.00;94909.75;654097;216;24857;-76
2022/06/24 04:16:18;;;;;;;;;;;16.20;1.40;;;17.57;100.00;94914.90;654201;212;24903;-75
2022/06/24 04:19:03;;;;;;;;;;;16.20;1.40;;;17.69;100.00;94917.00;653190;216;24842;-75
2022/06/24 04:21:44;;;;;;;;;;;16.30;1.40;;;17.71;100.00;94909.30;652300;216;26158;-75
2022/06/24 04:24:25;;;;;;;;;;;16.30;1.40;;;17.68;100.00;94914.17;648610;216;25591;-74
2022/06/24 04:27:06;;;;;;;;;;;16.40;1.40;;;17.69;100.00;94917.91;653504;216;24806;-75
2022/06/24 04:29:48;;;;;;;;;;;16.40;1.40;;;17.77;100.00;94921.16;654438;216;24802;-75
2022/06/24 04:32:29;;;;;;;;;;;16.40;1.40;;;17.89;100.00;94925.73;653641;212;25298;-75
2022/06/24 04:35:51;;;;;;;0.70;0.45;;;16.50;1.40;;;17.91;100.00;94931.00;646536;216;42412;-75
2022/06/24 04:38:33;;;;;;;0.40;0.30;;;16.50;1.40;;;18.01;100.00;94928.39;646540;212;31682;-75
2022/06/24 04:41:16;;;;;;;0.40;0.30;;;16.60;1.40;;;18.09;100.00;94922.37;647230;212;31539;-75
2022/06/24 04:43:56;;;;;;;0.73;0.30;;;16.60;1.40;;;18.17;100.00;94928.66;646958;216;31490;-75
2022/06/24 04:46:38;;;;;;;3.40;1.00;;;16.60;1.40;;;18.23;100.00;94929.06;646717;212;31451;-75
2022/06/24 04:49:20;;;;;;;1.00;0.30;;;16.70;1.40;;;18.18;100.00;94932.56;647985;216;31532;-75
2022/06/24 04:52:01;;;;;;;2.10;0.40;;;16.60;1.40;;;18.19;100.00;94932.27;644747;216;31565;-75
2022/06/24 04:54:43;;;;;;;0.53;0.53;;;16.70;1.40;;;18.25;100.00;94931.44;617733;226;33311;-75
2022/06/24 04:57:25;;;;;;;0.65;0.40;;;16.70;1.40;;;18.16;100.00;94934.38;646101;216;31772;-75
2022/06/24 05:02:41;;;;;;;2.00;0.80;;;16.90;1.40;;;18.26;100.00;94943.03;646787;212;31491;-76
2022/06/24 05:05:23;;;;;;;0.55;0.30;;;17.00;1.40;;;18.30;100.00;94943.55;646422;216;31524;-75
2022/06/24 05:08:05;;;;;;;0.70;0.40;;;17.00;1.40;;;18.36;100.00;94946.06;646833;212;42777;-75
2022/06/24 05:10:47;;;;;;;1.60;0.50;;;16.90;1.40;;;18.29;100.00;94944.75;645739;216;31943;-74
2022/06/24 05:13:28;;;;;;;1.70;0.50;;;16.90;1.40;;;18.30;100.00;94942.80;646770;216;31502;-75
2022/06/24 05:16:10;;;;;;;0.60;0.30;;;17.00;1.40;;;18.38;100.00;94940.37;618644;226;32035;-74
2022/06/24 05:18:55;;;;;;;2.08;0.47;;;17.00;1.40;;;18.46;100.00;94941.03;646287;216;31476;-75
2022/06/24 05:21:38;;;;;;;0.60;0.40;;;17.10;1.40;;;18.65;100.00;94944.75;647729;216;42109;-75
2022/06/24 05:26:28;;;;;;;2.40;0.60;;;17.30;1.40;;;18.72;100.00;94948.23;646500;216;31482;-74
2022/06/24 05:29:12;;;;;;;0.40;0.30;;;17.30;1.40;;;18.96;100.00;94941.84;646379;216;31573;-74
2022/06/24 05:31:57;;;;;;;2.70;0.40;;;17.40;1.40;;;19.15;100.00;94949.06;621092;222;31835;-74
2022/06/24 05:35:52;;;;;;;1.20;0.50;;;17.50;1.40;;;19.07;100.00;94945.72;646698;212;31519;-74
2022/06/24 05:38:34;;;;;;;2.50;0.80;;;17.50;1.40;;;19.43;100.00;94939.98;646986;212;31532;-75
2022/06/24 05:41:15;;;;;;;0.70;0.47;;;17.80;1.40;;;19.68;100.00;94932.94;647803;212;32844;-76
2022/06/24 05:43:58;;;;;;;0.60;0.50;;;18.00;1.40;;;19.58;100.00;94925.30;619508;226;32241;-75
2022/06/24 05:46:40;;;;;;;1.52;0.77;;;17.90;1.40;;;19.93;100.00;94920.27;646827;212;43337;-75
2022/06/24 05:49:27;;;;;;;0.90;0.47;;;18.10;1.40;;;19.97;100.00;94924.70;619223;226;31814;-74
2022/06/24 05:52:09;;;;;;;0.60;0.40;;;18.10;1.40;;;19.97;100.00;94914.89;648395;216;31788;-74
2022/06/24 05:55:03;;;;;;;1.70;0.40;;;18.10;1.40;;;20.06;100.00;94913.45;646372;212;31537;-76
2022/06/24 05:57:47;;;;;;;0.75;0.50;;;18.20;1.40;;;20.04;100.00;94911.89;645583;216;42679;-74
2022/06/24 06:00:31;;;;;;;2.10;0.60;;;18.10;1.40;;;19.73;100.00;94913.84;647753;216;42646;-75
2022/06/24 06:03:15;;;;;;;0.70;0.70;;;18.10;1.40;;;19.85;100.00;94915.05;647246;216;34603;-74
2022/06/24 06:06:03;;;;;;;0.57;0.20;;;18.10;1.40;;;20.13;100.00;94915.72;647045;216;42151;-76
2022/06/24 06:08:44;;;;;;;0.43;0.20;;;18.20;1.40;;;20.07;100.00;94916.89;619721;226;31949;-75
2022/06/24 06:11:32;;;;;;;1.00;0.30;;;18.20;1.40;;;20.12;100.00;94922.27;619872;226;32379;-74
2022/06/24 06:14:14;;;;;;;0.70;0.30;;;18.30;1.40;;;20.18;100.00;94923.58;647221;212;31861;-74
2022/06/24 06:16:55;;;;;;;2.10;0.40;;;18.40;1.40;;;20.22;100.00;94922.70;619648;226;32013;-74
2022/06/24 06:19:39;;;;;;;2.12;0.52;;;18.40;1.40;;;20.23;100.00;94924.88;647423;216;31602;-75
2022/06/24 06:22:27;;;;;;;0.50;0.40;;;18.40;1.40;;;20.13;100.00;94922.71;647744;212;31690;-74
2022/06/24 06:25:09;;;;;;;1.00;0.43;;;18.50;1.40;;;20.36;100.00;94922.53;646831;216;31996;-75
2022/06/24 06:27:51;;;;;;;0.70;0.50;;;18.80;1.40;;;20.45;100.00;94932.28;645267;216;31449;-74
2022/06/24 06:30:32;;;;;;;1.08;0.60;;;19.00;1.40;;;20.72;100.00;94933.30;646069;216;31528;-74
2022/06/24 06:35:51;;;;;;;0.67;0.50;;;19.40;1.40;;;20.90;100.00;94934.90;646369;216;42087;-74
2022/06/24 06:38:33;;;;;;;0.50;0.45;;;19.50;1.40;;;21.15;100.00;94932.37;648111;216;31512;-74
2022/06/24 06:41:17;;;;;;;0.70;0.50;;;19.70;1.40;;;21.43;100.00;94925.97;646898;216;31558;-74
2022/06/24 06:43:57;;;;;;;1.60;0.40;;;19.90;1.40;;;21.46;100.00;94926.64;644592;216;31624;-74
2022/06/24 06:46:38;;;;;;;1.70;0.40;;;19.90;1.40;;;21.72;100.00;94933.96;645648;216;31583;-73
2022/06/24 06:49:22;;;;;;;0.60;0.50;;;20.00;1.40;;;21.88;100.00;94928.98;648364;216;32048;-76
2022/06/24 06:52:10;;;;;;;0.80;0.80;;;20.00;1.40;;;21.80;100.00;94934.16;645483;216;31994;-74
2022/06/24 06:54:53;;;;;;;1.42;0.90;;;20.00;1.40;;;21.36;100.00;94932.56;646262;216;31626;-75
2022/06/24 06:57:41;;;;;;;1.00;0.50;;;19.60;1.40;;;21.14;100.00;94938.08;646303;212;31758;-74
2022/06/24 07:00:23;;;;;;;1.27;0.68;;;19.60;1.40;;;21.17;100.00;94930.66;645389;216;31515;-74
2022/06/24 07:03:06;;;;;;;2.30;1.00;;;19.70;1.40;;;21.36;100.00;94926.81;646963;212;31600;-74
2022/06/24 07:05:48;;;;;;;1.10;0.50;;;19.70;1.40;;;21.58;100.00;94919.58;646436;216;32697;-75
2022/06/24 07:08:29;;;;;;;2.30;0.70;;;19.90;1.40;;;21.54;100.00;94918.64;645880;216;32067;-74
2022/06/24 07:11:11;;;;;;;1.48;0.40;;;20.00;1.40;;;21.49;100.00;94915.39;646260;216;31782;-74
2022/06/24 07:13:54;;;;;;;1.10;1.00;;;19.90;1.40;;;21.41;100.00;94914.29;646328;212;31883;-74
2022/06/24 07:16:34;;;;;;;2.80;0.80;;;19.90;1.40;;;21.03;100.00;94909.73;646829;212;31553;-74
2022/06/24 07:19:23;;;;;;;1.00;0.45;;;19.90;1.40;;;20.48;100.00;94902.45;647036;216;31527;-76
2022/06/24 07:22:10;;;;;;;1.12;0.70;;;19.70;1.40;;;20.50;100.00;94900.93;647074;216;31999;-75
2022/06/24 07:24:51;;;;;;;0.60;0.60;;;19.40;1.40;;;20.49;100.00;94904.45;646028;216;31578;-74
2022/06/24 07:27:35;;;;;;;1.00;0.70;;;19.40;1.40;;;20.52;100.00;94909.75;646792;212;32391;-76
2022/06/24 07:30:17;;;;;;;0.70;0.50;;;19.50;1.40;;;20.53;100.00;94910.47;646454;212;31620;-76
2022/06/24 07:33:00;;;;;;;1.40;0.80;;;19.70;1.40;;;20.54;100.00;94903.60;647930;216;31484;-75
2022/06/24 07:35:53;;;;;;;1.40;0.60;;;19.70;1.40;;;20.57;100.00;94898.67;619210;226;32230;-75
2022/06/24 07:38:41;;;;;;;3.03;0.70;;;19.70;1.40;;;20.45;100.00;94899.00;648199;216;31490;-76
2022/06/24 07:41:29;;;;;;;0.80;0.60;;;19.60;1.40;;;20.49;100.00;94903.06;646802;216;31488;-74
2022/06/24 07:44:13;;;;;;;0.52;0.50;;;19.70;1.40;;;20.53;100.00;94903.36;618802;226;32014;-75
2022/06/24 07:47:00;;;;;;;1.25;0.70;;;19.70;1.40;;;20.43;100.00;94901.37;645891;216;31494;-75
2022/06/24 07:49:48;;;;;;;0.70;0.70;;;19.70;1.40;;;20.67;100.00;94898.50;648232;216;31530;-76
2022/06/24 07:52:30;;;;;;;1.30;0.62;;;19.80;1.40;;;20.89;100.00;94892.75;646835;212;31505;-75
2022/06/24 07:58:07;;;;;;;2.10;1.30;;;20.60;1.40;;;21.66;100.00;94895.78;619735;226;32156;-75
2022/06/24 08:00:50;;;;;;;2.28;0.77;;;20.30;1.40;;;22.05;100.00;94900.26;646250;216;31968;-74
2022/06/24 08:03:38;;;;;;;1.00;0.90;;;20.30;1.40;;;22.22;100.00;94898.27;647218;216;31908;-77
2022/06/24 08:06:26;;;;;;;2.78;0.80;;;20.50;1.40;;;22.55;100.00;94896.72;646542;216;31474;-74
2022/06/24 08:09:13;;;;;;;0.90;0.57;;;20.70;1.40;;;22.47;100.00;94894.77;647759;216;31940;-74
2022/06/24 08:11:55;;;;;;;1.70;0.80;;;20.70;1.40;;;22.66;100.00;94893.44;641795;216;32183;-74
2022/06/24 08:14:36;;;;;;;5.50;0.90;;;21.00;1.40;;;23.15;100.00;94895.80;646432;216;31585;-74
2022/06/24 08:17:18;;;;;;;2.80;0.70;;;21.30;1.40;;;23.11;100.00;94901.06;646593;216;31785;-74
2022/06/24 08:20:00;;;;;;;1.90;0.60;;;21.10;1.40;;;22.99;100.00;94901.87;647177;216;35541;-75
2022/06/24 08:22:42;;;;;;;4.00;0.90;;;21.10;1.40;;;23.21;100.00;94893.48;646702;216;31493;-75
2022/06/24 08:25:23;;;;;;;3.40;0.98;;;21.50;1.40;;;23.63;100.00;94896.66;645769;216;31508;-74
2022/06/24 08:28:05;;;;;;;2.70;1.00;;;21.90;1.40;;;23.82;100.00;94897.86;646950;216;42140;-75
2022/06/24 08:30:50;;;;;;;1.40;0.77;;;21.90;1.40;;;24.18;100.00;94896.64;647026;216;31537;-74
2022/06/24 08:35:51;;;;;;;1.10;0.60;;;21.90;1.40;;;24.11;100.00;94890.97;646642;216;31619;-74
2022/06/24 08:38:39;;;;;;;4.40;1.05;;;21.90;1.40;;;23.40;100.00;94886.78;646370;216;31835;-75
2022/06/24 08:41:26;;;;;;;1.20;0.70;;;21.30;1.40;;;22.84;100.00;94892.57;646426;216;32196;-74
2022/06/24 08:44:08;;;;;;;2.75;0.70;;;21.00;1.40;;;22.39;100.00;94890.78;646619;216;33594;-74
2022/06/24 08:46:51;;;;;;;4.05;1.02;;;20.90;1.40;;;22.38;100.00;94886.69;619416;226;32072;-74
2022/06/24 08:49:33;;;;;;;2.45;0.90;;;21.00;1.40;;;21.91;100.00;94891.73;646033;216;31500;-74
2022/06/24 08:52:15;;;;;;;1.23;0.90;;;20.90;1.40;;;21.30;100.00;94883.20;644428;212;31653;-74
2022/06/24 08:54:59;;;;;;;2.40;1.10;;;20.60;1.40;;;21.18;100.00;94882.88;647218;216;31540;-75
2022/06/24 08:57:47;;;;;;;2.60;1.50;;;20.50;1.40;;;21.27;100.00;94883.83;618563;226;31844;-77
2022/06/24 09:00:35;;;;;;;1.87;1.37;;;20.80;1.40;;;21.49;100.00;94874.28;646581;216;42187;-74
2022/06/24 09:03:16;;;;;;;1.50;1.02;;;21.20;1.40;;;21.69;100.00;94872.33;646160;216;31528;-74
2022/06/24 09:05:58;;;;;;;2.40;0.90;;;21.50;1.40;;;22.11;100.00;94868.44;646577;216;31653;-74
2022/06/24 09:08:49;;;;;;;1.60;1.00;;;21.60;1.40;;;22.95;100.00;94860.66;647021;216;42175;-77
2022/06/24 09:11:36;;;;;;;4.18;0.93;;;22.60;1.40;;;23.39;100.00;94864.47;647571;216;31485;-73
2022/06/24 09:14:18;;;;;;;2.50;0.90;;;22.60;1.40;;;23.43;100.00;94867.27;646265;216;31584;-75
2022/06/24 09:16:59;;;;;;;1.50;1.03;;;22.30;1.40;;;23.86;100.00;94867.11;646586;216;31701;-74
2022/06/24 09:19:41;;;;;;;1.50;0.80;;;22.60;1.40;;;23.92;100.00;94868.78;646774;216;31678;-74
2022/06/24 09:22:23;;;;;;;1.17;0.88;;;22.30;1.40;;;24.05;100.00;94872.61;645968;216;31539;-74
2022/06/24 09:25:07;;;;;;;1.42;0.80;;;22.20;1.40;;;23.71;100.00;94867.82;646273;216;31516;-75
2022/06/24 09:27:55;;;;;;;2.35;0.80;;;22.50;1.40;;;24.64;100.00;94859.67;645668;216;31779;-74
2022/06/24 09:30:36;;;;;;;2.55;0.80;;;22.60;1.40;;;25.06;100.00;94857.80;647140;216;31503;-74
2022/06/24 09:35:51;;;;;;;1.77;1.10;;;22.20;1.40;;;24.59;100.00;94847.95;645862;216;31610;-74
2022/06/24 09:38:33;;;;;;;2.70;1.10;;;22.00;1.40;;;24.38;100.00;94840.17;647713;216;31563;-74
2022/06/24 09:41:14;;;;;;;4.05;1.10;;;22.70;1.40;;;26.19;100.00;94834.59;646423;212;31666;-75
2022/06/24 09:44:02;;;;;;;2.10;1.00;;;24.90;1.40;;;26.86;91.17;94828.51;618664;226;31969;-76
2022/06/24 09:46:44;;;;;;;2.50;0.90;;;25.10;1.40;;;28.06;85.59;94819.67;646150;216;33722;-76
2022/06/24 09:49:25;;;;;;;2.55;0.80;;;24.90;1.40;;;28.50;84.31;94812.34;619460;225;34133;-76
2022/06/24 09:52:13;;;;;;;0.70;0.60;;;25.00;1.40;;;28.34;74.07;94811.98;644156;212;32326;-74
2022/06/24 09:54:55;;;;;;;0.90;0.75;;;26.70;1.40;;;28.26;75.39;94807.86;646873;212;31578;-75
2022/06/24 09:57:43;;;;;;;2.10;0.60;;;24.80;1.40;;;28.46;74.29;94806.23;620286;226;32472;-76
2022/06/24 10:03:17;;;;;;;1.35;0.80;;;26.50;1.40;;;30.02;65.46;94795.78;617591;226;31965;-74
2022/06/24 10:06:02;;;;;;;1.08;0.50;;;26.60;1.40;;;30.62;69.49;94796.60;647097;212;31541;-74
2022/06/24 10:08:44;;;;;;;3.10;0.80;;;26.40;1.40;;;30.51;66.97;94793.18;646743;212;32253;-73
2022/06/24 10:11:25;;;;;;;0.60;0.60;;;26.10;1.40;;;30.62;71.39;94792.73;646163;216;32162;-74
2022/06/24 10:14:08;;;;;;;2.60;0.60;;;25.60;1.40;;;28.83;58.42;94794.67;647074;216;32047;-74
2022/06/24 10:16:51;;;;;;;1.70;0.70;;;24.70;1.40;;;29.22;64.61;94786.55;619196;226;31922;-75
2022/06/24 10:19:39;;;;;;;1.10;0.70;;;25.20;1.40;;;28.56;64.89;94783.06;645387;216;31512;-73
2022/06/24 10:22:35;;;;;;;0.70;0.60;;;25.60;1.40;;;28.84;62.21;94780.35;646376;212;31508;-74
2022/06/24 10:25:18;;;;;;;0.80;0.60;;;26.40;1.40;;;30.04;65.12;94774.25;647591;216;31497;-74
2022/06/24 10:28:06;;;;;;;2.80;0.70;;;26.70;1.40;;;29.90;60.90;94770.08;646052;212;31470;-74
2022/06/24 10:30:57;;;;;;;2.00;0.60;;;27.00;1.40;;;30.68;62.85;94775.90;645560;216;31512;-74
2022/06/24 10:36:04;;;;;;;1.37;0.70;;;26.50;1.40;;;30.52;58.18;94776.36;619526;226;31989;-75
2022/06/24 10:38:45;;;;;;;0.98;0.60;;;27.70;1.40;;;30.94;61.25;94774.69;647888;212;31509;-76
2022/06/24 10:41:28;;;;;;;2.58;0.70;;;26.80;1.40;;;29.36;60.78;94778.13;643546;215;31501;-76
2022/06/24 10:44:24;;;;;;;2.00;0.90;;;26.00;1.40;;;28.85;64.30;94775.44;618971;226;32433;-74
2022/06/24 10:47:27;;;;;;;1.62;0.70;;;25.30;1.40;;;28.45;65.58;94766.88;619432;226;32019;-73
2022/06/24 10:50:11;;;;;;;2.78;0.80;;;25.20;1.40;;;28.53;63.04;94755.34;646751;216;31685;-71
2022/06/24 10:52:59;;;;;;;1.00;0.50;;;25.30;1.40;;;29.05;66.07;94752.95;616378;222;31962;-72
2022/06/24 10:55:38;;;;;;;0.60;0.40;;;26.00;1.40;;;28.59;63.13;94753.78;619468;226;31948;-73
2022/06/24 10:58:19;;;;;;;1.90;0.60;;;26.00;1.40;;;27.94;62.08;94754.35;646296;212;32186;-74
2022/06/24 11:01:06;;;;;;;1.60;0.50;;;25.40;1.40;;;28.54;60.94;94755.20;646990;216;31496;-73
2022/06/24 11:03:47;;;;;;;1.80;0.50;;;25.90;1.40;;;28.64;58.86;94752.88;646234;216;31513;-73
2022/06/24 11:06:28;;;;;;;0.80;0.50;;;25.80;1.40;;;29.06;59.48;94754.44;646140;212;31548;-72
2022/06/24 11:09:13;;;;;;;1.30;0.60;;;26.00;1.40;;;29.46;56.82;94744.39;619978;222;32530;-74
2022/06/24 11:11:55;;;;;;;2.00;0.60;;;25.80;1.40;;;28.93;59.85;94741.36;646270;216;31565;-75
2022/06/24 11:14:37;;;;;;;1.00;0.52;;;25.30;1.40;;;28.12;58.87;94737.55;646876;212;42796;-74
2022/06/24 11:17:18;;;;;;;2.70;0.60;;;25.40;1.40;;;28.43;59.91;94729.98;646021;216;32095;-74
2022/06/24 11:20:00;;;;;;;1.70;0.70;;;25.70;1.40;;;29.04;59.24;94724.00;646936;216;31642;-73
2022/06/24 11:22:47;;;;;;;2.03;0.50;;;26.20;1.40;;;30.23;61.59;94712.34;648326;216;31551;-74
2022/06/24 11:25:30;;;;;;;1.70;0.80;;;28.00;1.40;;;30.86;62.63;94711.04;619669;225;31892;-74
2022/06/24 11:28:18;;;;;;;0.98;0.50;;;28.40;1.40;;;30.19;58.46;94710.42;620491;222;32264;-74
2022/06/24 11:31:18;;;;;;;0.82;0.62;;;27.40;1.40;;;30.36;55.63;94717.80;647891;212;42174;-75
2022/06/24 11:35:52;;;;;;;1.73;0.75;;;28.00;1.40;;;31.25;54.67;94717.19;646612;216;31661;-73
2022/06/24 11:41:10;;;;;;;4.72;0.75;;;27.80;1.40;;;32.21;54.54;94713.09;646439;216;42195;-74
2022/06/24 11:43:52;;;;;;;1.30;0.60;;;28.30;1.40;;;33.02;52.46;94701.63;646760;216;31510;-73
2022/06/24 11:46:34;;;;;;;1.23;0.55;;;28.90;1.40;;;32.45;51.19;94702.07;646937;212;31646;-74
2022/06/24 11:49:15;;;;;;;2.10;0.90;;;29.10;1.40;;;33.48;52.80;94694.10;645879;216;31808;-74
2022/06/24 11:51:57;;;;;;;1.70;0.77;;;29.00;1.40;;;33.05;50.30;94694.00;645322;216;31653;-74
2022/06/24 11:54:39;;;;;;;1.75;0.70;;;27.70;1.40;;;32.43;52.04;94699.09;647404;212;32107;-73
2022/06/24 11:57:21;;;;;;;2.15;0.90;;;27.50;1.40;;;31.61;54.30;94694.55;645586;212;31631;-74
2022/06/24 12:00:02;;;;;;;1.80;0.80;;;27.00;1.40;;;31.61;53.31;94690.65;647203;212;31584;-73
2022/06/24 12:02:44;;;;;;;1.10;0.70;;;26.80;1.40;;;31.92;54.17;94684.03;647841;216;31564;-73
2022/06/24 12:05:26;;;;;;;1.80;0.70;;;27.30;1.40;;;31.15;55.73;94696.58;646919;212;31941;-73
2022/06/24 12:08:11;;;;;;;0.88;0.70;;;27.00;1.40;;;31.12;54.07;94696.45;644919;212;31512;-71
2022/06/24 12:13:29;;;;;;;0.80;0.70;;;26.60;1.40;;;30.85;53.14;94693.74;647313;216;31528;-73
2022/06/24 12:16:13;;;;;;;2.40;0.70;;;26.60;1.40;;;29.61;55.65;94694.61;646977;212;32258;-75